sensor_id;sensor_type;location;lat;lon;timestamp;temperature;humidity
16485;DHT22;8353;47.856;12.344;2022-09-09T00:01:59;19.40;99.90
16485;DHT22;8353;47.856;12.344;2022-09-09T00:04:55;19.40;99.90
16485;DHT22;8353;47.856;12.344;2022-09-09T00:07:47;19.40;99.90
16485;DHT22;8353;47.856;12.344;2022-09-09T00:10:37;19.40;99.90
16485;DHT22;8353;47.856;12.344;2022-09-09T00:13:31;19.40;99.90
16485;DHT22;8353;47.856;12.344;2022-09-09T00:16:23;19.20;99.90
16485;DHT22;8353;47.856;12.344;2022-09-09T00:19:18;19.20;99.90
16485;DHT22;8353;47.856;12.344;2022-09-09T00:22:15;19.30;99.90
16485;DHT22;8353;47.856;12.344;2022-09-09T00:25:10;19.30;99.90
16485;DHT22;8353;47.856;12.344;2022-09-09T00:27:58;19.00;99.90
16485;DHT22;8353;47.856;12.344;2022-09-09T00:30:47;19.10;99.90
16485;DHT22;8353;47.856;12.344;2022-09-09T00:33:34;19.20;99.90
16485;DHT22;8353;47.856;12.344;2022-09-09T00:36:23;19.20;99.90
16485;DHT22;8353;47.856;12.344;2022-09-09T00:39:18;19.10;99.90
16485;DHT22;8353;47.856;12.344;2022-09-09T00:42:13;19.20;99.90
16485;DHT22;8353;47.856;12.344;2022-09-09T00:45:05;19.20;99.90
16485;DHT22;8353;47.856;12.344;2022-09-09T00:48:01;19.00;99.90
16485;DHT22;8353;47.856;12.344;2022-09-09T00:50:56;18.90;99.90
16485;DHT22;8353;47.856;12.344;2022-09-09T00:54:08;18.90;99.90
16485;DHT22;8353;47.856;12.344;2022-09-09T00:57:12;18.90;99.90
16485;DHT22;8353;47.856;12.344;2022-09-09T01:00:22;18.90;99.90
16485;DHT22;8353;47.856;12.344;2022-09-09T01:03:24;18.90;99.90
16485;DHT22;8353;47.856;12.344;2022-09-09T01:06:16;19.00;99.90
16485;DHT22;8353;47.856;12.344;2022-09-09T01:09:12;18.80;99.90
16485;DHT22;8353;47.856;12.344;2022-09-09T01:12:05;18.80;99.90
16485;DHT22;8353;47.856;12.344;2022-09-09T01:15:00;18.90;99.90
16485;DHT22;8353;47.856;12.344;2022-09-09T01:17:58;18.90;99.90
16485;DHT22;8353;47.856;12.344;2022-09-09T01:24:08;19.00;99.90
16485;DHT22;8353;47.856;12.344;2022-09-09T01:27:02;18.90;99.90
16485;DHT22;8353;47.856;12.344;2022-09-09T01:29:50;18.80;99.90
16485;DHT22;8353;47.856;12.344;2022-09-09T01:32:40;18.70;99.90
16485;DHT22;8353;47.856;12.344;2022-09-09T01:35:42;18.60;99.90
16485;DHT22;8353;47.856;12.344;2022-09-09T01:38:31;18.50;99.90
16485;DHT22;8353;47.856;12.344;2022-09-09T01:41:19;18.60;99.90
16485;DHT22;8353;47.856;12.344;2022-09-09T01:44:08;18.70;99.90
16485;DHT22;8353;47.856;12.344;2022-09-09T01:46:56;18.80;99.90
16485;DHT22;8353;47.856;12.344;2022-09-09T01:49:43;18.90;99.90
16485;DHT22;8353;47.856;12.344;2022-09-09T01:52:30;18.90;99.90
16485;DHT22;8353;47.856;12.344;2022-09-09T01:55:29;18.60;99.90
16485;DHT22;8353;47.856;12.344;2022-09-09T01:58:23;18.60;99.90
16485;DHT22;8353;47.856;12.344;2022-09-09T02:01:25;18.50;99.90
16485;DHT22;8353;47.856;12.344;2022-09-09T02:04:28;18.40;99.90
16485;DHT22;8353;47.856;12.344;2022-09-09T02:07:27;18.30;99.90
16485;DHT22;8353;47.856;12.344;2022-09-09T02:10:17;18.30;99.90
16485;DHT22;8353;47.856;12.344;2022-09-09T02:13:10;18.20;99.90
16485;DHT22;8353;47.856;12.344;2022-09-09T02:16:00;18.10;99.90
16485;DHT22;8353;47.856;12.344;2022-09-09T02:18:55;18.20;99.90
16485;DHT22;8353;47.856;12.344;2022-09-09T02:21:44;18.40;99.90
16485;DHT22;8353;47.856;12.344;2022-09-09T02:24:35;18.50;99.90
16485;DHT22;8353;47.856;12.344;2022-09-09T02:27:23;18.60;99.90
16485;DHT22;8353;47.856;12.344;2022-09-09T02:30:11;18.50;99.90
16485;DHT22;8353;47.856;12.344;2022-09-09T02:33:00;18.40;99.90
16485;DHT22;8353;47.856;12.344;2022-09-09T02:35:51;18.30;99.90
16485;DHT22;8353;47.856;12.344;2022-09-09T02:38:42;18.30;99.90
16485;DHT22;8353;47.856;12.344;2022-09-09T02:41:33;18.30;99.90
16485;DHT22;8353;47.856;12.344;2022-09-09T02:44:20;18.40;99.90
16485;DHT22;8353;47.856;12.344;2022-09-09T02:47:16;18.50;99.90
16485;DHT22;8353;47.856;12.344;2022-09-09T02:50:12;18.60;99.90
16485;DHT22;8353;47.856;12.344;2022-09-09T02:53:07;18.70;99.90
16485;DHT22;8353;47.856;12.344;2022-09-09T02:56:00;18.70;99.90
16485;DHT22;8353;47.856;12.344;2022-09-09T02:58:49;18.80;99.90
16485;DHT22;8353;47.856;12.344;2022-09-09T03:01:37;18.70;99.90
16485;DHT22;8353;47.856;12.344;2022-09-09T03:04:25;18.70;99.90
16485;DHT22;8353;47.856;12.344;2022-09-09T03:07:12;18.60;99.90
16485;DHT22;8353;47.856;12.344;2022-09-09T03:10:00;18.40;99.90
16485;DHT22;8353;47.856;12.344;2022-09-09T03:12:47;18.40;99.90
16485;DHT22;8353;47.856;12.344;2022-09-09T03:15:34;18.40;99.90
16485;DHT22;8353;47.856;12.344;2022-09-09T03:18:21;18.50;99.90
16485;DHT22;8353;47.856;12.344;2022-09-09T03:21:08;18.40;99.90
16485;DHT22;8353;47.856;12.344;2022-09-09T03:23:55;18.60;99.90
16485;DHT22;8353;47.856;12.344;2022-09-09T03:26:44;18.70;99.90
16485;DHT22;8353;47.856;12.344;2022-09-09T03:29:31;18.60;99.90
16485;DHT22;8353;47.856;12.344;2022-09-09T03:32:18;18.60;99.90
16485;DHT22;8353;47.856;12.344;2022-09-09T03:35:08;18.60;99.90
16485;DHT22;8353;47.856;12.344;2022-09-09T03:37:55;18.60;99.90
16485;DHT22;8353;47.856;12.344;2022-09-09T03:40:48;18.50;99.90
16485;DHT22;8353;47.856;12.344;2022-09-09T03:43:37;18.30;99.90
16485;DHT22;8353;47.856;12.344;2022-09-09T03:46:25;18.40;99.90
16485;DHT22;8353;47.856;12.344;2022-09-09T03:49:11;18.20;99.90
16485;DHT22;8353;47.856;12.344;2022-09-09T03:51:58;18.00;99.90
16485;DHT22;8353;47.856;12.344;2022-09-09T03:54:46;18.00;99.90
16485;DHT22;8353;47.856;12.344;2022-09-09T03:57:34;18.10;99.90
16485;DHT22;8353;47.856;12.344;2022-09-09T04:00:23;18.30;99.90
16485;DHT22;8353;47.856;12.344;2022-09-09T04:03:10;18.50;99.90
16485;DHT22;8353;47.856;12.344;2022-09-09T04:05:59;18.70;99.90
16485;DHT22;8353;47.856;12.344;2022-09-09T04:08:47;18.70;99.90
16485;DHT22;8353;47.856;12.344;2022-09-09T04:11:35;18.80;99.90
16485;DHT22;8353;47.856;12.344;2022-09-09T04:14:22;18.80;99.90
16485;DHT22;8353;47.856;12.344;2022-09-09T04:17:12;18.80;99.90
16485;DHT22;8353;47.856;12.344;2022-09-09T04:19:59;18.70;99.90
16485;DHT22;8353;47.856;12.344;2022-09-09T04:22:46;18.80;99.90
16485;DHT22;8353;47.856;12.344;2022-09-09T04:25:33;18.80;99.90
16485;DHT22;8353;47.856;12.344;2022-09-09T04:28:21;18.90;99.90
16485;DHT22;8353;47.856;12.344;2022-09-09T04:31:11;18.80;99.90
16485;DHT22;8353;47.856;12.344;2022-09-09T04:34:02;18.90;99.90
16485;DHT22;8353;47.856;12.344;2022-09-09T04:36:50;18.90;99.90
16485;DHT22;8353;47.856;12.344;2022-09-09T04:39:38;18.60;99.90
16485;DHT22;8353;47.856;12.344;2022-09-09T04:42:24;18.60;99.90
16485;DHT22;8353;47.856;12.344;2022-09-09T04:45:14;18.70;99.90
16485;DHT22;8353;47.856;12.344;2022-09-09T04:48:01;18.60;99.90
16485;DHT22;8353;47.856;12.344;2022-09-09T04:50:56;18.60;99.90
16485;DHT22;8353;47.856;12.344;2022-09-09T04:53:44;18.60;99.90
16485;DHT22;8353;47.856;12.344;2022-09-09T04:56:32;18.60;99.90
16485;DHT22;8353;47.856;12.344;2022-09-09T04:59:19;18.50;99.90
16485;DHT22;8353;47.856;12.344;2022-09-09T05:02:06;18.60;99.90
16485;DHT22;8353;47.856;12.344;2022-09-09T05:04:52;18.60;99.90
16485;DHT22;8353;47.856;12.344;2022-09-09T05:07:41;18.60;99.90
16485;DHT22;8353;47.856;12.344;2022-09-09T05:10:28;18.60;99.90
16485;DHT22;8353;47.856;12.344;2022-09-09T05:13:15;18.40;99.90
16485;DHT22;8353;47.856;12.344;2022-09-09T05:16:02;18.50;99.90
16485;DHT22;8353;47.856;12.344;2022-09-09T05:18:50;18.60;99.90
16485;DHT22;8353;47.856;12.344;2022-09-09T05:21:37;18.70;99.90
16485;DHT22;8353;47.856;12.344;2022-09-09T05:24:25;18.60;99.90
16485;DHT22;8353;47.856;12.344;2022-09-09T05:27:12;18.60;99.90
16485;DHT22;8353;47.856;12.344;2022-09-09T05:29:58;18.50;99.90
16485;DHT22;8353;47.856;12.344;2022-09-09T05:32:45;18.40;99.90
16485;DHT22;8353;47.856;12.344;2022-09-09T05:35:34;18.40;99.90
16485;DHT22;8353;47.856;12.344;2022-09-09T05:38:21;18.50;99.90
16485;DHT22;8353;47.856;12.344;2022-09-09T05:41:11;18.60;99.90
16485;DHT22;8353;47.856;12.344;2022-09-09T05:44:01;18.60;99.90
16485;DHT22;8353;47.856;12.344;2022-09-09T05:46:49;18.50;99.90
16485;DHT22;8353;47.856;12.344;2022-09-09T05:49:36;18.60;99.90
16485;DHT22;8353;47.856;12.344;2022-09-09T05:52:23;18.70;99.90
16485;DHT22;8353;47.856;12.344;2022-09-09T05:55:11;18.80;99.90
16485;DHT22;8353;47.856;12.344;2022-09-09T05:57:59;18.90;99.90
16485;DHT22;8353;47.856;12.344;2022-09-09T06:00:53;18.80;99.90
16485;DHT22;8353;47.856;12.344;2022-09-09T06:03:54;18.60;99.90
16485;DHT22;8353;47.856;12.344;2022-09-09T06:06:41;18.60;99.90
16485;DHT22;8353;47.856;12.344;2022-09-09T06:09:28;18.50;99.90
16485;DHT22;8353;47.856;12.344;2022-09-09T06:12:15;18.50;99.90
16485;DHT22;8353;47.856;12.344;2022-09-09T06:15:05;18.40;99.90
16485;DHT22;8353;47.856;12.344;2022-09-09T06:17:54;18.40;99.90
16485;DHT22;8353;47.856;12.344;2022-09-09T06:20:41;18.40;99.90
16485;DHT22;8353;47.856;12.344;2022-09-09T06:23:28;18.50;99.90
16485;DHT22;8353;47.856;12.344;2022-09-09T06:26:17;18.60;99.90
16485;DHT22;8353;47.856;12.344;2022-09-09T06:29:04;18.80;99.90
16485;DHT22;8353;47.856;12.344;2022-09-09T06:31:53;18.90;99.90
16485;DHT22;8353;47.856;12.344;2022-09-09T06:34:39;18.80;99.90
16485;DHT22;8353;47.856;12.344;2022-09-09T06:37:26;18.80;99.90
16485;DHT22;8353;47.856;12.344;2022-09-09T06:40:13;18.70;99.90
16485;DHT22;8353;47.856;12.344;2022-09-09T06:43:00;18.80;99.90
16485;DHT22;8353;47.856;12.344;2022-09-09T06:45:53;18.90;99.90
16485;DHT22;8353;47.856;12.344;2022-09-09T06:48:43;19.10;99.90
16485;DHT22;8353;47.856;12.344;2022-09-09T06:51:33;19.30;99.90
16485;DHT22;8353;47.856;12.344;2022-09-09T06:54:20;19.40;99.90
16485;DHT22;8353;47.856;12.344;2022-09-09T06:57:08;19.30;99.90
16485;DHT22;8353;47.856;12.344;2022-09-09T06:59:55;19.30;99.90
16485;DHT22;8353;47.856;12.344;2022-09-09T07:02:42;19.10;99.90
16485;DHT22;8353;47.856;12.344;2022-09-09T07:05:31;19.00;99.90
16485;DHT22;8353;47.856;12.344;2022-09-09T07:08:18;19.20;99.90
16485;DHT22;8353;47.856;12.344;2022-09-09T07:11:07;19.30;99.90
16485;DHT22;8353;47.856;12.344;2022-09-09T07:13:54;19.30;99.90
16485;DHT22;8353;47.856;12.344;2022-09-09T07:16:43;19.40;99.90
16485;DHT22;8353;47.856;12.344;2022-09-09T07:19:30;19.50;99.90
16485;DHT22;8353;47.856;12.344;2022-09-09T07:22:18;19.40;99.90
16485;DHT22;8353;47.856;12.344;2022-09-09T07:25:06;19.40;99.90
16485;DHT22;8353;47.856;12.344;2022-09-09T07:27:53;19.40;99.90
16485;DHT22;8353;47.856;12.344;2022-09-09T07:30:40;19.20;99.90
16485;DHT22;8353;47.856;12.344;2022-09-09T07:33:29;19.20;99.90
16485;DHT22;8353;47.856;12.344;2022-09-09T07:36:18;19.10;99.90
16485;DHT22;8353;47.856;12.344;2022-09-09T07:39:10;19.20;99.90
16485;DHT22;8353;47.856;12.344;2022-09-09T07:41:58;19.10;99.90
16485;DHT22;8353;47.856;12.344;2022-09-09T07:44:45;19.00;99.90
16485;DHT22;8353;47.856;12.344;2022-09-09T07:47:32;18.90;99.90
16485;DHT22;8353;47.856;12.344;2022-09-09T07:50:18;19.00;99.90
16485;DHT22;8353;47.856;12.344;2022-09-09T07:53:05;19.10;99.90
16485;DHT22;8353;47.856;12.344;2022-09-09T07:55:54;19.10;99.90
16485;DHT22;8353;47.856;12.344;2022-09-09T07:58:41;18.90;99.90
16485;DHT22;8353;47.856;12.344;2022-09-09T08:01:30;18.90;99.90
16485;DHT22;8353;47.856;12.344;2022-09-09T08:04:19;19.00;99.90
16485;DHT22;8353;47.856;12.344;2022-09-09T08:07:05;19.00;99.90
16485;DHT22;8353;47.856;12.344;2022-09-09T08:09:52;19.10;99.90
16485;DHT22;8353;47.856;12.344;2022-09-09T08:12:41;19.10;99.90
16485;DHT22;8353;47.856;12.344;2022-09-09T08:15:27;19.10;99.90
16485;DHT22;8353;47.856;12.344;2022-09-09T08:18:16;19.10;99.90
16485;DHT22;8353;47.856;12.344;2022-09-09T08:21:08;19.00;99.90
16485;DHT22;8353;47.856;12.344;2022-09-09T08:23:58;19.00;99.90
16485;DHT22;8353;47.856;12.344;2022-09-09T08:26:47;19.10;99.90
16485;DHT22;8353;47.856;12.344;2022-09-09T08:29:36;19.30;99.90
16485;DHT22;8353;47.856;12.344;2022-09-09T08:32:23;19.40;99.90
16485;DHT22;8353;47.856;12.344;2022-09-09T08:35:10;19.40;99.90
16485;DHT22;8353;47.856;12.344;2022-09-09T08:37:56;19.40;99.90
16485;DHT22;8353;47.856;12.344;2022-09-09T08:40:47;19.50;99.90
16485;DHT22;8353;47.856;12.344;2022-09-09T08:43:36;19.60;99.90
16485;DHT22;8353;47.856;12.344;2022-09-09T08:46:27;19.60;99.90
16485;DHT22;8353;47.856;12.344;2022-09-09T08:49:42;19.40;99.90
16485;DHT22;8353;47.856;12.344;2022-09-09T08:52:38;19.30;99.90
16485;DHT22;8353;47.856;12.344;2022-09-09T08:55:35;19.40;99.90
16485;DHT22;8353;47.856;12.344;2022-09-09T08:58:26;19.50;99.90
16485;DHT22;8353;47.856;12.344;2022-09-09T09:01:32;19.60;99.90
16485;DHT22;8353;47.856;12.344;2022-09-09T09:04:37;19.60;99.90
16485;DHT22;8353;47.856;12.344;2022-09-09T09:07:35;19.70;99.90
16485;DHT22;8353;47.856;12.344;2022-09-09T09:10:32;19.70;99.90
16485;DHT22;8353;47.856;12.344;2022-09-09T09:13:22;19.60;99.90
16485;DHT22;8353;47.856;12.344;2022-09-09T09:16:19;19.80;99.90
16485;DHT22;8353;47.856;12.344;2022-09-09T09:19:12;19.80;99.90
16485;DHT22;8353;47.856;12.344;2022-09-09T09:22:06;19.70;99.90
16485;DHT22;8353;47.856;12.344;2022-09-09T09:25:02;19.80;99.90
16485;DHT22;8353;47.856;12.344;2022-09-09T09:27:57;19.80;99.90
16485;DHT22;8353;47.856;12.344;2022-09-09T09:30:49;19.80;99.90
16485;DHT22;8353;47.856;12.344;2022-09-09T09:33:45;19.60;99.90
16485;DHT22;8353;47.856;12.344;2022-09-09T09:36:40;19.50;99.90
16485;DHT22;8353;47.856;12.344;2022-09-09T09:39:29;19.50;99.90
16485;DHT22;8353;47.856;12.344;2022-09-09T09:42:17;19.50;99.90
16485;DHT22;8353;47.856;12.344;2022-09-09T09:45:08;19.60;99.90
16485;DHT22;8353;47.856;12.344;2022-09-09T09:48:03;19.60;99.90
16485;DHT22;8353;47.856;12.344;2022-09-09T09:50:53;19.50;99.90
16485;DHT22;8353;47.856;12.344;2022-09-09T09:53:42;19.50;99.90
16485;DHT22;8353;47.856;12.344;2022-09-09T09:56:29;19.40;99.90
16485;DHT22;8353;47.856;12.344;2022-09-09T09:59:32;19.60;99.90
16485;DHT22;8353;47.856;12.344;2022-09-09T10:02:22;19.70;99.90
16485;DHT22;8353;47.856;12.344;2022-09-09T10:05:17;19.50;99.90
16485;DHT22;8353;47.856;12.344;2022-09-09T10:08:11;19.50;99.90
16485;DHT22;8353;47.856;12.344;2022-09-09T10:11:07;19.50;99.90
16485;DHT22;8353;47.856;12.344;2022-09-09T10:14:05;19.40;99.90
16485;DHT22;8353;47.856;12.344;2022-09-09T10:17:05;19.30;99.90
16485;DHT22;8353;47.856;12.344;2022-09-09T10:20:04;19.30;99.90
16485;DHT22;8353;47.856;12.344;2022-09-09T10:23:05;19.40;99.90
16485;DHT22;8353;47.856;12.344;2022-09-09T10:26:15;19.60;99.90
16485;DHT22;8353;47.856;12.344;2022-09-09T10:29:28;19.40;99.90
16485;DHT22;8353;47.856;12.344;2022-09-09T10:32:36;19.50;99.90
16485;DHT22;8353;47.856;12.344;2022-09-09T10:35:30;19.50;99.90
16485;DHT22;8353;47.856;12.344;2022-09-09T10:38:20;19.40;99.90
16485;DHT22;8353;47.856;12.344;2022-09-09T10:41:19;19.40;99.90
16485;DHT22;8353;47.856;12.344;2022-09-09T10:47:32;19.50;99.90
16485;DHT22;8353;47.856;12.344;2022-09-09T10:50:42;19.40;99.90
16485;DHT22;8353;47.856;12.344;2022-09-09T10:53:41;19.40;99.90
16485;DHT22;8353;47.856;12.344;2022-09-09T10:56:34;19.30;99.90
16485;DHT22;8353;47.856;12.344;2022-09-09T10:59:25;19.30;99.90
16485;DHT22;8353;47.856;12.344;2022-09-09T11:02:16;19.30;99.90
16485;DHT22;8353;47.856;12.344;2022-09-09T11:05:08;19.30;99.90
16485;DHT22;8353;47.856;12.344;2022-09-09T11:07:59;19.40;99.90
16485;DHT22;8353;47.856;12.344;2022-09-09T11:10:52;19.20;99.90
16485;DHT22;8353;47.856;12.344;2022-09-09T11:13:45;19.10;99.90
16485;DHT22;8353;47.856;12.344;2022-09-09T11:16:38;19.30;99.90
16485;DHT22;8353;47.856;12.344;2022-09-09T11:19:31;19.40;99.90
16485;DHT22;8353;47.856;12.344;2022-09-09T11:22:29;19.50;99.90
16485;DHT22;8353;47.856;12.344;2022-09-09T11:25:20;19.60;99.90
16485;DHT22;8353;47.856;12.344;2022-09-09T11:28:24;19.60;99.90
16485;DHT22;8353;47.856;12.344;2022-09-09T11:31:37;19.60;99.90
16485;DHT22;8353;47.856;12.344;2022-09-09T11:34:39;19.70;99.90
16485;DHT22;8353;47.856;12.344;2022-09-09T11:37:43;19.70;99.90
16485;DHT22;8353;47.856;12.344;2022-09-09T11:40:34;19.70;99.90
16485;DHT22;8353;47.856;12.344;2022-09-09T11:43:24;19.70;99.90
16485;DHT22;8353;47.856;12.344;2022-09-09T11:46:15;19.80;99.90
16485;DHT22;8353;47.856;12.344;2022-09-09T11:49:05;19.70;99.90
16485;DHT22;8353;47.856;12.344;2022-09-09T11:51:53;19.70;99.90
16485;DHT22;8353;47.856;12.344;2022-09-09T11:54:46;19.70;99.90
16485;DHT22;8353;47.856;12.344;2022-09-09T11:57:35;19.70;99.90
16485;DHT22;8353;47.856;12.344;2022-09-09T12:00:35;19.60;99.90
16485;DHT22;8353;47.856;12.344;2022-09-09T12:03:40;19.70;99.90
16485;DHT22;8353;47.856;12.344;2022-09-09T12:06:31;20.00;99.90
16485;DHT22;8353;47.856;12.344;2022-09-09T12:09:23;20.20;99.90
16485;DHT22;8353;47.856;12.344;2022-09-09T12:12:24;20.30;99.90
16485;DHT22;8353;47.856;12.344;2022-09-09T12:15:25;20.50;99.90
16485;DHT22;8353;47.856;12.344;2022-09-09T12:18:16;20.50;99.90
16485;DHT22;8353;47.856;12.344;2022-09-09T12:21:14;20.60;99.90
16485;DHT22;8353;47.856;12.344;2022-09-09T12:24:08;20.60;99.90
16485;DHT22;8353;47.856;12.344;2022-09-09T12:26:59;20.70;99.90
16485;DHT22;8353;47.856;12.344;2022-09-09T12:29:54;20.80;99.90
16485;DHT22;8353;47.856;12.344;2022-09-09T12:32:42;20.90;99.90
16485;DHT22;8353;47.856;12.344;2022-09-09T12:35:30;20.60;99.90
16485;DHT22;8353;47.856;12.344;2022-09-09T12:38:30;20.40;99.90
16485;DHT22;8353;47.856;12.344;2022-09-09T12:41:21;20.40;99.90
16485;DHT22;8353;47.856;12.344;2022-09-09T12:44:09;20.40;99.90
16485;DHT22;8353;47.856;12.344;2022-09-09T12:46:58;20.50;99.90
16485;DHT22;8353;47.856;12.344;2022-09-09T12:49:47;20.40;99.90
16485;DHT22;8353;47.856;12.344;2022-09-09T12:52:36;20.30;99.90
16485;DHT22;8353;47.856;12.344;2022-09-09T12:55:28;20.40;99.90
16485;DHT22;8353;47.856;12.344;2022-09-09T12:58:17;20.30;99.90
16485;DHT22;8353;47.856;12.344;2022-09-09T13:01:05;20.30;99.90
16485;DHT22;8353;47.856;12.344;2022-09-09T13:03:54;20.40;99.90
16485;DHT22;8353;47.856;12.344;2022-09-09T13:06:41;20.50;99.90
16485;DHT22;8353;47.856;12.344;2022-09-09T13:09:28;20.50;99.90
16485;DHT22;8353;47.856;12.344;2022-09-09T13:12:17;20.50;99.90
16485;DHT22;8353;47.856;12.344;2022-09-09T13:15:16;20.40;99.90
16485;DHT22;8353;47.856;12.344;2022-09-09T13:18:10;20.30;99.90
16485;DHT22;8353;47.856;12.344;2022-09-09T13:20:58;20.40;99.90
16485;DHT22;8353;47.856;12.344;2022-09-09T13:23:49;20.50;99.90
16485;DHT22;8353;47.856;12.344;2022-09-09T13:26:37;20.60;99.90
16485;DHT22;8353;47.856;12.344;2022-09-09T13:29:24;20.50;99.90
16485;DHT22;8353;47.856;12.344;2022-09-09T13:32:17;20.50;99.90
16485;DHT22;8353;47.856;12.344;2022-09-09T13:38:09;20.40;99.90
16485;DHT22;8353;47.856;12.344;2022-09-09T13:40:57;20.30;99.90
16485;DHT22;8353;47.856;12.344;2022-09-09T13:43:47;20.20;99.90
16485;DHT22;8353;47.856;12.344;2022-09-09T13:46:35;20.40;99.90
16485;DHT22;8353;47.856;12.344;2022-09-09T13:49:28;20.50;99.90
16485;DHT22;8353;47.856;12.344;2022-09-09T13:52:17;20.70;99.90
16485;DHT22;8353;47.856;12.344;2022-09-09T13:55:05;20.70;99.90
16485;DHT22;8353;47.856;12.344;2022-09-09T13:57:54;20.90;99.90
16485;DHT22;8353;47.856;12.344;2022-09-09T14:00:41;20.90;99.90
16485;DHT22;8353;47.856;12.344;2022-09-09T14:03:29;20.70;99.90
16485;DHT22;8353;47.856;12.344;2022-09-09T14:06:17;20.80;99.90
16485;DHT22;8353;47.856;12.344;2022-09-09T14:09:05;20.80;99.90
16485;DHT22;8353;47.856;12.344;2022-09-09T14:11:52;20.80;99.90
16485;DHT22;8353;47.856;12.344;2022-09-09T14:14:40;20.80;99.90
16485;DHT22;8353;47.856;12.344;2022-09-09T14:17:28;20.80;99.90
16485;DHT22;8353;47.856;12.344;2022-09-09T14:20:17;20.90;99.90
16485;DHT22;8353;47.856;12.344;2022-09-09T14:23:10;21.00;99.90
16485;DHT22;8353;47.856;12.344;2022-09-09T14:26:02;21.00;99.90
16485;DHT22;8353;47.856;12.344;2022-09-09T14:28:53;21.00;99.90
16485;DHT22;8353;47.856;12.344;2022-09-09T14:31:41;21.10;99.90
16485;DHT22;8353;47.856;12.344;2022-09-09T14:34:30;21.20;99.90
16485;DHT22;8353;47.856;12.344;2022-09-09T14:37:27;21.20;99.90
16485;DHT22;8353;47.856;12.344;2022-09-09T14:40:28;20.90;99.90
16485;DHT22;8353;47.856;12.344;2022-09-09T14:43:16;20.30;99.90
16485;DHT22;8353;47.856;12.344;2022-09-09T14:46:09;19.80;99.90
16485;DHT22;8353;47.856;12.344;2022-09-09T14:49:04;19.40;99.90
16485;DHT22;8353;47.856;12.344;2022-09-09T14:51:52;19.20;99.90
16485;DHT22;8353;47.856;12.344;2022-09-09T14:54:41;19.30;99.90
16485;DHT22;8353;47.856;12.344;2022-09-09T14:57:35;19.80;99.90
16485;DHT22;8353;47.856;12.344;2022-09-09T15:00:25;20.00;99.90
16485;DHT22;8353;47.856;12.344;2022-09-09T15:03:12;20.30;99.90
16485;DHT22;8353;47.856;12.344;2022-09-09T15:06:05;20.40;99.90
16485;DHT22;8353;47.856;12.344;2022-09-09T15:08:57;20.50;99.90
16485;DHT22;8353;47.856;12.344;2022-09-09T15:11:46;20.60;99.90
16485;DHT22;8353;47.856;12.344;2022-09-09T15:14:53;20.50;99.90
16485;DHT22;8353;47.856;12.344;2022-09-09T15:17:43;20.60;99.90
16485;DHT22;8353;47.856;12.344;2022-09-09T15:20:32;20.40;99.90
16485;DHT22;8353;47.856;12.344;2022-09-09T15:23:22;20.30;99.90
16485;DHT22;8353;47.856;12.344;2022-09-09T15:26:11;20.50;99.90
16485;DHT22;8353;47.856;12.344;2022-09-09T15:29:02;20.60;99.90
16485;DHT22;8353;47.856;12.344;2022-09-09T15:31:55;20.40;99.90
16485;DHT22;8353;47.856;12.344;2022-09-09T15:34:41;20.50;99.90
16485;DHT22;8353;47.856;12.344;2022-09-09T15:37:28;20.60;99.90
16485;DHT22;8353;47.856;12.344;2022-09-09T15:40:16;20.70;99.90
16485;DHT22;8353;47.856;12.344;2022-09-09T15:43:03;20.50;99.90
16485;DHT22;8353;47.856;12.344;2022-09-09T15:45:54;20.10;99.90
16485;DHT22;8353;47.856;12.344;2022-09-09T15:48:45;20.50;99.90
16485;DHT22;8353;47.856;12.344;2022-09-09T15:51:32;20.60;99.90
16485;DHT22;8353;47.856;12.344;2022-09-09T15:54:21;20.60;99.90
16485;DHT22;8353;47.856;12.344;2022-09-09T15:57:11;20.60;99.90
16485;DHT22;8353;47.856;12.344;2022-09-09T15:59:58;20.80;99.90
16485;DHT22;8353;47.856;12.344;2022-09-09T16:02:46;20.80;99.90
16485;DHT22;8353;47.856;12.344;2022-09-09T16:05:34;20.70;99.90
16485;DHT22;8353;47.856;12.344;2022-09-09T16:08:21;20.80;99.90
16485;DHT22;8353;47.856;12.344;2022-09-09T16:11:09;20.80;99.90
16485;DHT22;8353;47.856;12.344;2022-09-09T16:13:58;20.90;99.90
16485;DHT22;8353;47.856;12.344;2022-09-09T16:16:45;20.70;99.90
16485;DHT22;8353;47.856;12.344;2022-09-09T16:19:32;20.80;99.90
16485;DHT22;8353;47.856;12.344;2022-09-09T16:22:21;20.90;99.90
16485;DHT22;8353;47.856;12.344;2022-09-09T16:25:09;20.90;99.90
16485;DHT22;8353;47.856;12.344;2022-09-09T16:27:56;21.00;99.90
16485;DHT22;8353;47.856;12.344;2022-09-09T16:30:43;20.90;99.90
16485;DHT22;8353;47.856;12.344;2022-09-09T16:33:30;20.90;99.90
16485;DHT22;8353;47.856;12.344;2022-09-09T16:36:18;20.90;99.90
16485;DHT22;8353;47.856;12.344;2022-09-09T16:39:08;20.80;99.90
16485;DHT22;8353;47.856;12.344;2022-09-09T16:41:56;20.60;99.90
16485;DHT22;8353;47.856;12.344;2022-09-09T16:44:43;20.70;99.90
16485;DHT22;8353;47.856;12.344;2022-09-09T16:47:29;20.70;99.90
16485;DHT22;8353;47.856;12.344;2022-09-09T16:50:16;20.70;99.90
16485;DHT22;8353;47.856;12.344;2022-09-09T16:53:03;20.50;99.90
16485;DHT22;8353;47.856;12.344;2022-09-09T16:55:55;20.40;99.90
16485;DHT22;8353;47.856;12.344;2022-09-09T16:58:42;20.30;99.90
16485;DHT22;8353;47.856;12.344;2022-09-09T17:01:35;20.30;99.90
16485;DHT22;8353;47.856;12.344;2022-09-09T17:04:25;20.10;99.90
16485;DHT22;8353;47.856;12.344;2022-09-09T17:07:13;20.10;99.90
16485;DHT22;8353;47.856;12.344;2022-09-09T17:10:00;20.20;99.90
16485;DHT22;8353;47.856;12.344;2022-09-09T17:12:48;20.20;99.90
16485;DHT22;8353;47.856;12.344;2022-09-09T17:15:39;20.30;99.90
16485;DHT22;8353;47.856;12.344;2022-09-09T17:18:27;20.30;99.90
16485;DHT22;8353;47.856;12.344;2022-09-09T17:21:17;20.00;99.90
16485;DHT22;8353;47.856;12.344;2022-09-09T17:24:04;20.00;99.90
16485;DHT22;8353;47.856;12.344;2022-09-09T17:26:52;19.80;99.90
16485;DHT22;8353;47.856;12.344;2022-09-09T17:29:41;19.80;99.90
16485;DHT22;8353;47.856;12.344;2022-09-09T17:32:28;19.80;99.90
16485;DHT22;8353;47.856;12.344;2022-09-09T17:35:16;19.90;99.90
16485;DHT22;8353;47.856;12.344;2022-09-09T17:38:03;19.90;99.90
16485;DHT22;8353;47.856;12.344;2022-09-09T17:41:00;19.80;99.90
16485;DHT22;8353;47.856;12.344;2022-09-09T17:43:47;19.80;99.90
16485;DHT22;8353;47.856;12.344;2022-09-09T17:46:37;19.60;99.90
16485;DHT22;8353;47.856;12.344;2022-09-09T17:49:25;19.60;99.90
16485;DHT22;8353;47.856;12.344;2022-09-09T17:52:12;19.50;99.90
16485;DHT22;8353;47.856;12.344;2022-09-09T17:55:01;19.50;99.90
16485;DHT22;8353;47.856;12.344;2022-09-09T17:57:49;19.30;99.90
16485;DHT22;8353;47.856;12.344;2022-09-09T18:00:35;19.20;99.90
16485;DHT22;8353;47.856;12.344;2022-09-09T18:03:24;19.20;99.90
16485;DHT22;8353;47.856;12.344;2022-09-09T18:06:12;19.10;99.90
16485;DHT22;8353;47.856;12.344;2022-09-09T18:09:03;19.20;99.90